Time;durP1;ratioP1;P1;durP2;ratioP2;P2;SDS_P1;SDS_P2;PMS_P1;PMS_P2;Temp;Humidity;BMP_temperature;BMP_pressure;BME280_temperature;BME280_humidity;BME280_pressure;Samples;Min_cycle;Max_cycle;Signal;HPM_P1;HPM_P2
2021/05/15 00:02:10;;;;;;;86.70;48.20;;;14.00;99.90;;;;;;5049808;28;20190;-79
2021/05/15 00:04:36;;;;;;;83.07;47.07;;;14.00;99.90;;;;;;5049991;28;20227;-80
2021/05/15 00:07:02;;;;;;;82.43;48.60;;;13.90;99.90;;;;;;5044140;28;20228;-79
2021/05/15 00:09:28;;;;;;;85.73;47.60;;;14.00;99.90;;;;;;5053018;28;20267;-80
2021/05/15 00:11:53;;;;;;;88.07;49.23;;;14.00;99.90;;;;;;5051946;28;20695;-79
2021/05/15 00:14:19;;;;;;;80.23;46.00;;;14.10;99.90;;;;;;5043465;28;20187;-79
2021/05/15 00:16:45;;;;;;;81.10;45.40;;;14.00;99.90;;;;;;5046660;28;20645;-79
2021/05/15 00:19:10;;;;;;;85.30;46.80;;;14.00;99.90;;;;;;5044474;28;20180;-79
2021/05/15 00:21:36;;;;;;;85.37;46.00;;;14.10;99.90;;;;;;5050079;28;20216;-79
2021/05/15 00:24:02;;;;;;;77.20;43.70;;;14.20;99.90;;;;;;5051150;28;20195;-80
2021/05/15 00:26:28;;;;;;;82.07;44.17;;;14.20;99.90;;;;;;5048661;28;20187;-79
2021/05/15 00:28:54;;;;;;;79.97;44.13;;;14.10;99.90;;;;;;5047196;28;20211;-80
2021/05/15 00:31:20;;;;;;;77.30;43.43;;;14.10;99.90;;;;;;5046893;28;20178;-80
2021/05/15 00:33:46;;;;;;;79.73;43.43;;;14.10;99.90;;;;;;5051045;28;20209;-80
2021/05/15 00:36:11;;;;;;;71.40;43.70;;;14.10;99.90;;;;;;5055462;28;20219;-80
2021/05/15 00:38:37;;;;;;;75.30;43.17;;;14.00;99.90;;;;;;5047487;28;20197;-81
2021/05/15 00:41:03;;;;;;;68.23;41.57;;;13.80;99.90;;;;;;5045178;28;20191;-80
2021/05/15 00:43:29;;;;;;;74.13;41.30;;;13.70;99.90;;;;;;5047918;28;20612;-80
2021/05/15 00:45:55;;;;;;;72.60;42.10;;;13.80;99.90;;;;;;5048824;28;20222;-80
2021/05/15 00:48:22;;;;;;;72.10;41.43;;;13.80;99.90;;;;;;5048345;28;20218;-80
2021/05/15 00:50:48;;;;;;;73.73;41.40;;;13.80;99.90;;;;;;5049167;28;20185;-80
2021/05/15 00:53:14;;;;;;;71.13;41.17;;;13.80;99.90;;;;;;5049298;28;20187;-80
2021/05/15 00:55:39;;;;;;;68.47;40.03;;;13.70;99.90;;;;;;5049321;28;20185;-79
2021/05/15 00:58:05;;;;;;;70.93;40.53;;;13.80;99.90;;;;;;5052853;28;20286;-80
2021/05/15 01:00:31;;;;;;;71.63;41.33;;;13.80;99.90;;;;;;5049757;28;20218;-79
2021/05/15 01:02:57;;;;;;;68.97;40.47;;;13.50;99.90;;;;;;5050367;28;20262;-80
2021/05/15 01:05:23;;;;;;;71.60;40.83;;;13.40;99.90;;;;;;5040826;28;20192;-80
2021/05/15 01:07:49;;;;;;;73.97;42.33;;;13.50;99.90;;;;;;5050657;28;20216;-80
2021/05/15 01:10:17;;;;;;;73.07;41.33;;;13.60;99.90;;;;;;5052639;28;20186;-80
2021/05/15 01:12:50;;;;;;;77.50;42.37;;;13.70;99.90;;;;;;5049407;28;20696;-80
2021/05/15 01:15:16;;;;;;;73.10;41.40;;;13.80;99.90;;;;;;5036096;28;20198;-80
2021/05/15 01:17:54;;;;;;;72.57;41.93;;;13.80;99.90;;;;;;5048682;28;20707;-79
2021/05/15 01:20:21;;;;;;;70.87;39.93;;;13.80;99.90;;;;;;5051350;28;20189;-79
2021/05/15 01:22:47;;;;;;;69.57;40.77;;;13.70;99.90;;;;;;5048785;28;20180;-79
2021/05/15 01:25:14;;;;;;;72.70;40.33;;;13.50;99.90;;;;;;5055619;28;20279;-80
2021/05/15 01:27:40;;;;;;;67.20;39.77;;;13.50;99.90;;;;;;5049495;28;20207;-80
2021/05/15 01:30:07;;;;;;;70.63;39.97;;;13.50;99.90;;;;;;5053079;28;20219;-80
2021/05/15 01:32:33;;;;;;;68.67;39.00;;;13.50;99.90;;;;;;5053537;28;20193;-80
2021/05/15 01:34:59;;;;;;;65.30;38.33;;;13.50;99.90;;;;;;5051285;28;20224;-80
2021/05/15 01:37:24;;;;;;;65.63;37.73;;;13.50;99.90;;;;;;5054032;28;20193;-79
2021/05/15 01:39:50;;;;;;;64.13;37.20;;;13.20;99.90;;;;;;5045871;28;20284;-80
2021/05/15 01:42:18;;;;;;;61.63;36.13;;;13.20;99.90;;;;;;5053255;28;20205;-80
2021/05/15 01:44:44;;;;;;;61.23;36.70;;;13.10;99.90;;;;;;5049352;28;20181;-80
2021/05/15 01:47:10;;;;;;;60.87;36.10;;;13.20;99.90;;;;;;5053174;28;20219;-80
2021/05/15 01:49:35;;;;;;;65.77;37.00;;;13.20;99.90;;;;;;5051463;28;20187;-79
2021/05/15 01:52:01;;;;;;;64.00;36.43;;;13.30;99.90;;;;;;5051947;28;20286;-80
2021/05/15 01:54:27;;;;;;;67.40;36.37;;;13.40;99.90;;;;;;5053784;28;20244;-79
2021/05/15 01:56:52;;;;;;;68.37;37.93;;;13.50;99.90;;;;;;5055110;28;20178;-80
2021/05/15 01:59:18;;;;;;;64.53;37.93;;;13.60;99.90;;;;;;5051748;28;20299;-80
2021/05/15 02:01:43;;;;;;;63.50;37.27;;;13.60;99.90;;;;;;5053018;28;20188;-80
2021/05/15 02:04:09;;;;;;;62.53;37.40;;;13.70;99.90;;;;;;5041317;28;20180;-80
2021/05/15 02:06:35;;;;;;;68.97;38.53;;;13.80;99.90;;;;;;5053915;28;20254;-80
2021/05/15 02:09:00;;;;;;;70.33;38.60;;;13.80;99.90;;;;;;5055231;28;20221;-80
2021/05/15 02:11:26;;;;;;;70.47;40.00;;;13.90;99.90;;;;;;5051917;28;20608;-79
2021/05/15 02:13:52;;;;;;;72.37;40.37;;;13.90;99.90;;;;;;5051693;28;20198;-80
2021/05/15 02:16:18;;;;;;;73.80;40.43;;;14.00;99.90;;;;;;5045623;28;20219;-80
2021/05/15 02:18:45;;;;;;;64.57;39.67;;;14.00;99.90;;;;;;5049390;28;20633;-80
2021/05/15 02:21:11;;;;;;;67.77;39.13;;;13.90;99.90;;;;;;5046704;28;20639;-80
2021/05/15 02:23:37;;;;;;;66.17;39.20;;;14.00;99.90;;;;;;5049935;28;20280;-80
2021/05/15 02:26:04;;;;;;;64.43;38.40;;;14.00;99.90;;;;;;5049925;28;20192;-80
2021/05/15 02:28:30;;;;;;;63.07;37.17;;;13.90;99.90;;;;;;5049315;28;20211;-80
2021/05/15 02:30:55;;;;;;;61.63;38.40;;;13.80;99.90;;;;;;5051042;28;20193;-80
2021/05/15 02:33:21;;;;;;;61.10;38.10;;;13.70;99.90;;;;;;5048714;28;20191;-80
2021/05/15 02:35:48;;;;;;;62.00;38.40;;;13.70;99.90;;;;;;5052616;28;20227;-80
2021/05/15 02:38:17;;;;;;;59.17;37.40;;;13.70;99.90;;;;;;5043850;28;20271;-80
2021/05/15 02:40:43;;;;;;;64.23;37.70;;;13.80;99.90;;;;;;5050397;28;20195;-79
2021/05/15 02:43:09;;;;;;;64.83;39.57;;;13.80;99.90;;;;;;5052974;28;20648;-80
2021/05/15 02:45:35;;;;;;;60.23;37.43;;;13.80;99.90;;;;;;5045129;28;20258;-80
2021/05/15 02:48:01;;;;;;;57.53;36.43;;;13.70;99.90;;;;;;5052611;28;20204;-80
2021/05/15 02:50:27;;;;;;;63.60;39.10;;;13.70;99.90;;;;;;5044658;28;20195;-80
2021/05/15 02:52:53;;;;;;;64.47;39.27;;;13.60;99.90;;;;;;5051028;28;20207;-80
2021/05/15 02:55:21;;;;;;;63.00;39.33;;;13.60;99.90;;;;;;5053093;28;20647;-80
2021/05/15 02:57:48;;;;;;;62.07;37.70;;;13.60;99.90;;;;;;5048360;28;20191;-80
2021/05/15 03:00:19;;;;;;;59.33;38.23;;;13.60;99.90;;;;;;5050626;28;20662;-80
2021/05/15 03:02:46;;;;;;;66.10;38.80;;;13.60;99.90;;;;;;5052791;28;20279;-80
2021/05/15 03:05:14;;;;;;;62.60;38.70;;;13.60;99.90;;;;;;5052801;28;20185;-80
2021/05/15 03:07:40;;;;;;;63.70;39.00;;;13.60;99.90;;;;;;5050165;28;20208;-81
2021/05/15 03:10:07;;;;;;;64.40;39.57;;;13.60;99.90;;;;;;5050415;28;21998;-80
2021/05/15 03:12:33;;;;;;;64.00;38.00;;;13.70;99.90;;;;;;5049632;28;20186;-79
2021/05/15 03:14:59;;;;;;;64.23;39.43;;;13.70;99.90;;;;;;5024148;28;20191;-80
2021/05/15 03:17:25;;;;;;;60.57;37.43;;;13.70;99.90;;;;;;5050174;28;20198;-79
2021/05/15 03:19:53;;;;;;;61.77;38.77;;;13.70;99.90;;;;;;5046423;28;20188;-79
2021/05/15 03:22:22;;;;;;;66.90;40.23;;;13.70;99.90;;;;;;5052266;28;20218;-79
2021/05/15 03:24:48;;;;;;;63.70;39.23;;;13.70;99.90;;;;;;5047348;28;20567;-79
2021/05/15 03:27:14;;;;;;;65.90;39.23;;;13.60;99.90;;;;;;5045554;28;20195;-79
2021/05/15 03:29:41;;;;;;;62.03;38.87;;;13.70;99.90;;;;;;5049996;28;20192;-78
2021/05/15 03:32:08;;;;;;;61.67;38.63;;;13.70;99.90;;;;;;5045618;28;20268;-79
2021/05/15 03:34:33;;;;;;;66.13;38.90;;;13.60;99.90;;;;;;5034437;28;20188;-79
2021/05/15 03:36:59;;;;;;;58.57;36.77;;;13.60;99.90;;;;;;5043841;28;20221;-79
2021/05/15 03:39:25;;;;;;;63.10;39.13;;;13.40;99.90;;;;;;5048768;28;20232;-79
2021/05/15 03:41:50;;;;;;;61.43;39.17;;;13.40;99.90;;;;;;5049304;28;20254;-79
2021/05/15 03:44:16;;;;;;;70.17;39.70;;;13.30;99.90;;;;;;5040529;28;20655;-79
2021/05/15 03:46:42;;;;;;;64.30;39.17;;;13.30;99.90;;;;;;5049840;28;20202;-79
2021/05/15 03:49:08;;;;;;;63.10;40.20;;;13.10;99.90;;;;;;5051050;28;20234;-79
2021/05/15 03:51:35;;;;;;;66.03;39.97;;;13.00;99.90;;;;;;5047921;28;20272;-79
2021/05/15 03:54:00;;;;;;;64.83;40.83;;;12.90;99.90;;;;;;5045615;28;20188;-79
2021/05/15 03:56:26;;;;;;;68.97;41.30;;;12.90;99.90;;;;;;5044023;28;20175;-79
2021/05/15 03:58:53;;;;;;;67.50;40.73;;;12.80;99.90;;;;;;5049054;28;20650;-79
2021/05/15 04:01:20;;;;;;;71.87;42.20;;;12.70;99.90;;;;;;5051585;28;20724;-80
2021/05/15 04:03:46;;;;;;;64.27;40.37;;;12.80;99.90;;;;;;5051365;28;20573;-80
2021/05/15 04:06:12;;;;;;;70.20;41.90;;;12.70;99.90;;;;;;5048715;28;20206;-79
2021/05/15 04:08:38;;;;;;;68.83;40.40;;;12.70;99.90;;;;;;5046903;28;20210;-79
2021/05/15 04:11:03;;;;;;;75.50;42.43;;;12.70;99.90;;;;;;5049799;28;20183;-79
2021/05/15 04:16:48;;;;;;;68.50;42.07;;;12.80;99.90;;;;;;5051738;28;20220;-79
2021/05/15 04:18:43;;;;;;;67.50;40.87;;;12.70;99.90;;;;;;5038582;28;20257;-80
2021/05/15 04:21:09;;;;;;;69.87;41.37;;;12.70;99.90;;;;;;5049647;28;20190;-79
2021/05/15 04:23:35;;;;;;;71.47;41.77;;;12.70;99.90;;;;;;5048552;28;20638;-80
2021/05/15 04:26:01;;;;;;;72.00;42.90;;;12.60;99.90;;;;;;5043232;28;20190;-79
2021/05/15 04:28:27;;;;;;;65.37;40.83;;;12.50;99.90;;;;;;5051160;28;20206;-80
2021/05/15 04:30:54;;;;;;;72.17;43.03;;;12.50;99.90;;;;;;5042531;28;20210;-80
2021/05/15 04:33:23;;;;;;;70.17;42.23;;;12.70;99.90;;;;;;5047465;28;20671;-80
2021/05/15 04:35:51;;;;;;;67.60;41.70;;;13.00;99.90;;;;;;5035223;28;20230;-79
2021/05/15 04:38:17;;;;;;;68.87;42.77;;;13.10;99.90;;;;;;5047157;28;20270;-79
2021/05/15 04:40:43;;;;;;;67.73;42.37;;;13.30;99.90;;;;;;5051166;28;20179;-79
2021/05/15 04:43:08;;;;;;;72.23;42.37;;;13.50;99.90;;;;;;5049640;28;20325;-79
2021/05/15 04:45:34;;;;;;;70.77;44.33;;;13.50;99.90;;;;;;5048743;28;20215;-79
2021/05/15 04:48:00;;;;;;;71.57;44.53;;;13.50;99.90;;;;;;5043870;28;20669;-79
2021/05/15 04:50:26;;;;;;;70.90;43.37;;;13.50;99.90;;;;;;5047343;28;20643;-79
2021/05/15 04:52:52;;;;;;;69.83;43.07;;;13.60;99.90;;;;;;5049975;28;20180;-79
2021/05/15 04:55:18;;;;;;;70.00;42.37;;;13.50;99.90;;;;;;5041289;28;20643;-79
2021/05/15 04:57:45;;;;;;;66.90;41.50;;;13.60;99.90;;;;;;5048315;28;20195;-79
2021/05/15 05:00:11;;;;;;;68.53;42.33;;;13.50;99.90;;;;;;5047651;28;20238;-79
2021/05/15 05:02:37;;;;;;;71.73;43.10;;;13.60;99.90;;;;;;5048943;28;20196;-79
2021/05/15 05:05:03;;;;;;;60.67;38.40;;;13.60;99.90;;;;;;5048982;28;20196;-79
2021/05/15 05:07:28;;;;;;;66.20;40.60;;;13.50;99.90;;;;;;5047246;28;20726;-79
2021/05/15 05:09:54;;;;;;;58.67;38.33;;;13.40;99.90;;;;;;5048822;28;20266;-79
2021/05/15 05:12:20;;;;;;;56.13;35.27;;;13.20;99.90;;;;;;5050638;28;20270;-79
2021/05/15 05:14:45;;;;;;;53.50;33.53;;;13.30;99.90;;;;;;5050855;28;20190;-79
2021/05/15 05:17:11;;;;;;;47.77;30.77;;;13.40;99.90;;;;;;5050873;28;20303;-80
2021/05/15 05:19:37;;;;;;;40.67;26.83;;;13.40;99.90;;;;;;5049326;28;20185;-79
2021/05/15 05:22:03;;;;;;;38.60;25.67;;;13.40;99.90;;;;;;5046980;28;20780;-79
2021/05/15 05:24:32;;;;;;;39.53;25.47;;;13.50;99.90;;;;;;5022624;28;20627;-79
2021/05/15 05:27:00;;;;;;;38.80;25.23;;;13.90;99.90;;;;;;5050129;28;20266;-79
2021/05/15 05:29:26;;;;;;;38.07;25.13;;;14.30;99.90;;;;;;5042790;28;20219;-79
2021/05/15 05:31:52;;;;;;;35.60;23.40;;;14.60;99.90;;;;;;5047164;28;20177;-79
2021/05/15 05:34:19;;;;;;;34.20;23.47;;;15.20;99.90;;;;;;5028720;28;20608;-80
2021/05/15 05:36:46;;;;;;;33.77;23.10;;;15.80;99.90;;;;;;5040219;28;20698;-79
2021/05/15 05:39:15;;;;;;;33.50;21.37;;;16.30;99.90;;;;;;5046856;28;20189;-78
2021/05/15 05:41:41;;;;;;;30.70;22.00;;;16.80;99.90;;;;;;5049682;28;20181;-79
2021/05/15 05:44:07;;;;;;;30.80;20.47;;;17.00;99.90;;;;;;5046997;28;20768;-79
2021/05/15 05:46:33;;;;;;;29.67;20.30;;;16.80;99.90;;;;;;5049827;28;20209;-79
2021/05/15 05:48:59;;;;;;;28.10;20.53;;;16.60;99.90;;;;;;5051685;28;20288;-79
2021/05/15 05:51:25;;;;;;;29.13;19.90;;;16.40;99.90;;;;;;5050612;28;20271;-79
2021/05/15 05:53:50;;;;;;;26.77;18.90;;;16.30;99.90;;;;;;5043031;28;20266;-79
2021/05/15 05:56:17;;;;;;;26.43;19.27;;;15.90;99.90;;;;;;5050530;28;20186;-79
2021/05/15 05:58:45;;;;;;;26.27;18.10;;;15.70;99.90;;;;;;5047444;28;20297;-79
2021/05/15 06:01:14;;;;;;;30.87;18.37;;;15.40;99.90;;;;;;5045052;28;20261;-79
2021/05/15 06:03:40;;;;;;;25.97;16.87;;;15.00;99.90;;;;;;5050090;28;20195;-79
2021/05/15 06:06:06;;;;;;;26.10;17.20;;;14.70;99.90;;;;;;5046230;28;20211;-79
2021/05/15 06:08:32;;;;;;;23.03;15.17;;;14.60;99.90;;;;;;5048441;28;20289;-79
2021/05/15 06:10:59;;;;;;;26.37;14.67;;;14.50;99.90;;;;;;5039885;28;20740;-80
2021/05/15 06:13:25;;;;;;;21.33;14.37;;;14.50;99.90;;;;;;5048762;28;20189;-81
2021/05/15 06:15:50;;;;;;;22.90;15.23;;;14.80;99.90;;;;;;5054778;28;20186;-80
2021/05/15 06:18:16;;;;;;;21.60;14.30;;;15.00;99.90;;;;;;5049538;28;20548;-80
2021/05/15 06:20:42;;;;;;;20.30;13.20;;;15.00;99.90;;;;;;5053656;28;20180;-80
2021/05/15 06:23:08;;;;;;;21.17;12.37;;;15.30;99.90;;;;;;5054143;28;20197;-79
2021/05/15 06:25:34;;;;;;;20.97;11.93;;;15.50;99.90;;;;;;5037177;28;20275;-79
2021/05/15 06:27:59;;;;;;;20.37;12.17;;;15.60;99.90;;;;;;5043136;28;20193;-80
2021/05/15 06:30:25;;;;;;;19.63;11.17;;;15.40;99.90;;;;;;5046329;28;20178;-79
2021/05/15 06:32:51;;;;;;;19.10;11.33;;;15.20;99.90;;;;;;5052117;28;20746;-80
2021/05/15 06:35:16;;;;;;;18.50;11.60;;;15.10;99.90;;;;;;5051000;28;20212;-79
2021/05/15 06:37:42;;;;;;;17.20;10.77;;;15.00;99.90;;;;;;5052620;28;20967;-80
2021/05/15 06:40:09;;;;;;;17.37;11.10;;;14.70;99.90;;;;;;5049964;28;20673;-80
2021/05/15 06:42:36;;;;;;;17.70;11.63;;;14.80;99.90;;;;;;5045820;28;20247;-79
2021/05/15 06:45:04;;;;;;;20.27;12.27;;;14.70;99.90;;;;;;5049723;28;20237;-79
2021/05/15 06:47:30;;;;;;;20.57;11.87;;;14.70;99.90;;;;;;5046042;28;20688;-78
2021/05/15 06:49:56;;;;;;;18.40;11.60;;;14.50;99.90;;;;;;5047167;28;20200;-79
2021/05/15 06:52:21;;;;;;;20.03;12.23;;;14.30;99.90;;;;;;5049899;28;20216;-79
2021/05/15 06:54:47;;;;;;;19.33;11.90;;;14.30;99.90;;;;;;5049092;28;20185;-78
2021/05/15 06:57:13;;;;;;;20.10;12.13;;;14.30;99.90;;;;;;5051719;28;20270;-78
2021/05/15 06:59:39;;;;;;;21.37;12.73;;;14.20;99.90;;;;;;5050069;28;20272;-79
2021/05/15 07:02:04;;;;;;;21.97;13.47;;;14.10;99.90;;;;;;5049745;28;20173;-79
2021/05/15 07:04:30;;;;;;;20.47;12.87;;;14.20;99.90;;;;;;5050049;28;20553;-77
2021/05/15 07:06:56;;;;;;;21.40;12.77;;;14.30;99.90;;;;;;5050841;28;20198;-78
2021/05/15 07:09:21;;;;;;;21.03;13.23;;;14.30;99.90;;;;;;5049147;28;20200;-78
2021/05/15 07:11:50;;;;;;;20.90;12.60;;;14.40;99.90;;;;;;5047616;28;20188;-78
2021/05/15 07:14:17;;;;;;;17.93;12.00;;;14.20;99.90;;;;;;5049932;28;20213;-77
2021/05/15 07:16:43;;;;;;;18.43;11.37;;;14.20;99.90;;;;;;5043158;28;20660;-78
2021/05/15 07:19:09;;;;;;;19.43;10.80;;;14.30;99.90;;;;;;5049026;28;20192;-77
2021/05/15 07:21:35;;;;;;;18.00;11.33;;;14.00;99.90;;;;;;5050016;28;20190;-79
2021/05/15 07:24:01;;;;;;;18.70;11.83;;;14.10;99.90;;;;;;5051245;28;20188;-79
2021/05/15 07:26:27;;;;;;;16.93;10.57;;;14.20;99.90;;;;;;5051180;28;20183;-78
2021/05/15 07:28:53;;;;;;;19.93;11.37;;;14.30;99.90;;;;;;5050443;28;20298;-78
2021/05/15 07:31:19;;;;;;;19.07;11.27;;;14.30;99.90;;;;;;5050254;28;20260;-78
2021/05/15 07:33:45;;;;;;;22.47;11.10;;;14.50;99.90;;;;;;5048692;28;20179;-78
2021/05/15 07:36:11;;;;;;;17.03;9.50;;;14.70;99.90;;;;;;5051851;28;20220;-78
2021/05/15 07:38:37;;;;;;;19.70;9.87;;;15.00;99.90;;;;;;5053753;28;20188;-78
2021/05/15 07:41:04;;;;;;;19.87;9.03;;;15.00;99.90;;;;;;5048545;28;20630;-79
2021/05/15 07:43:30;;;;;;;14.07;9.07;;;15.40;99.90;;;;;;5067246;28;20553;-78
2021/05/15 07:45:57;;;;;;;14.73;9.40;;;15.80;99.90;;;;;;5044606;28;20194;-79
2021/05/15 07:48:29;;;;;;;18.87;9.50;;;16.20;99.90;;;;;;5050619;28;20206;-78
2021/05/15 07:50:59;;;;;;;14.87;8.30;;;16.50;99.90;;;;;;5034245;28;20576;-78
2021/05/15 07:53:25;;;;;;;15.37;8.37;;;16.20;99.90;;;;;;5046675;28;20183;-78
2021/05/15 07:55:52;;;;;;;15.67;9.07;;;16.00;99.90;;;;;;5048891;28;20205;-78
2021/05/15 07:58:18;;;;;;;15.87;8.90;;;15.90;99.90;;;;;;5048678;28;20500;-78
2021/05/15 08:00:44;;;;;;;17.53;8.90;;;15.90;99.90;;;;;;5050177;28;20194;-78
2021/05/15 08:03:10;;;;;;;12.67;8.10;;;15.70;99.90;;;;;;5045217;28;20661;-78
2021/05/15 08:05:35;;;;;;;15.03;8.77;;;15.60;99.90;;;;;;5050957;28;20257;-78
2021/05/15 08:08:02;;;;;;;14.80;8.50;;;15.40;99.90;;;;;;5050363;28;20263;-78
2021/05/15 08:10:29;;;;;;;13.93;8.27;;;15.40;99.90;;;;;;5050146;28;20542;-78
2021/05/15 08:12:55;;;;;;;14.30;8.10;;;15.40;99.90;;;;;;5049927;28;20200;-78
2021/05/15 08:15:21;;;;;;;16.63;8.03;;;15.50;99.90;;;;;;5052287;28;20193;-78
2021/05/15 08:17:46;;;;;;;12.70;7.77;;;15.40;99.90;;;;;;5049111;28;20195;-78
2021/05/15 08:20:12;;;;;;;17.43;8.10;;;15.20;99.90;;;;;;5043466;28;20201;-78
2021/05/15 08:22:38;;;;;;;15.03;7.97;;;15.10;99.90;;;;;;5049796;28;20184;-78
2021/05/15 08:25:06;;;;;;;13.47;7.40;;;15.30;99.90;;;;;;5052952;28;20657;-78
2021/05/15 08:27:34;;;;;;;14.27;7.07;;;15.20;99.90;;;;;;5048669;28;20946;-78
2021/05/15 08:30:00;;;;;;;13.13;6.80;;;14.90;99.90;;;;;;5048333;28;20199;-78
2021/05/15 08:32:26;;;;;;;15.10;6.83;;;14.70;99.90;;;;;;5044431;28;20184;-78
2021/05/15 08:34:51;;;;;;;14.67;5.90;;;14.60;99.90;;;;;;5048391;28;20199;-78
2021/05/15 08:37:17;;;;;;;12.97;5.70;;;14.90;99.90;;;;;;5048327;28;20214;-78
2021/05/15 08:39:43;;;;;;;11.43;5.37;;;15.30;99.90;;;;;;5039362;28;20189;-78
2021/05/15 08:42:08;;;;;;;11.07;5.70;;;15.80;99.90;;;;;;5047879;28;20298;-78
2021/05/15 08:44:38;;;;;;;14.27;4.97;;;16.00;99.90;;;;;;5045028;28;20218;-78
2021/05/15 08:47:07;;;;;;;9.90;4.40;;;16.10;99.90;;;;;;5034366;28;20671;-77
2021/05/15 08:49:35;;;;;;;9.93;5.00;;;16.20;99.90;;;;;;5040227;28;20274;-77
2021/05/15 08:52:02;;;;;;;11.87;4.67;;;16.20;99.90;;;;;;5048258;28;20209;-78
2021/05/15 08:54:28;;;;;;;13.17;4.00;;;16.50;99.90;;;;;;5049723;28;20182;-77
2021/05/15 08:56:54;;;;;;;10.37;3.97;;;17.20;99.90;;;;;;5048932;28;20194;-78
2021/05/15 08:59:19;;;;;;;8.93;3.97;;;17.60;99.90;;;;;;5047706;28;20195;-77
2021/05/15 09:01:46;;;;;;;14.27;5.00;;;17.60;99.90;;;;;;5041990;28;20196;-78
2021/05/15 09:04:12;;;;;;;8.80;3.33;;;17.50;99.90;;;;;;5051109;28;20186;-78
2021/05/15 09:06:42;;;;;;;10.87;3.70;;;17.80;99.90;;;;;;5043681;28;20245;-78
2021/05/15 09:09:08;;;;;;;13.50;3.80;;;18.00;99.90;;;;;;5046363;28;20211;-78
2021/05/15 09:11:34;;;;;;;9.37;3.63;;;18.30;99.90;;;;;;5048986;28;20542;-78
2021/05/15 09:14:00;;;;;;;12.30;3.27;;;18.30;99.90;;;;;;5042454;28;20255;-78
2021/05/15 09:16:26;;;;;;;13.03;3.47;;;17.80;99.90;;;;;;5049704;28;20645;-78
2021/05/15 09:18:52;;;;;;;15.97;3.07;;;17.90;99.90;;;;;;5042422;28;20695;-77
2021/05/15 09:21:21;;;;;;;8.20;2.83;;;18.60;99.90;;;;;;5048869;28;20283;-78
2021/05/15 09:23:49;;;;;;;7.20;2.50;;;19.50;99.90;;;;;;5048847;28;20558;-77
2021/05/15 09:26:24;;;;;;;10.00;2.43;;;19.70;99.90;;;;;;5048010;28;20193;-77
2021/05/15 09:28:51;;;;;;;8.33;2.00;;;18.80;99.90;;;;;;5048258;28;20249;-78
2021/05/15 09:31:17;;;;;;;5.37;1.93;;;18.20;99.90;;;;;;5047843;28;20216;-77
2021/05/15 09:33:46;;;;;;;11.30;2.30;;;18.30;99.90;;;;;;5051063;28;20223;-77
2021/05/15 09:36:19;;;;;;;11.80;2.37;;;17.70;99.90;;;;;;5041019;28;20228;-78
2021/05/15 09:38:45;;;;;;;8.00;2.00;;;17.70;99.90;;;;;;5048145;28;20279;-78
2021/05/15 09:41:12;;;;;;;12.83;2.23;;;17.70;99.90;;;;;;5047223;28;20189;-77
2021/05/15 09:43:38;;;;;;;11.17;2.23;;;17.60;99.90;;;;;;5047551;28;20197;-78
2021/05/15 09:46:04;;;;;;;7.63;1.60;;;16.90;99.90;;;;;;5048636;28;20274;-76
2021/05/15 09:48:36;;;;;;;9.20;2.00;;;16.60;99.90;;;;;;5051352;28;20238;-77
2021/05/15 09:51:14;;;;;;;7.37;2.00;;;16.20;99.90;;;;;;5049469;28;20190;-77
2021/05/15 09:53:42;;;;;;;8.17;2.00;;;16.10;99.90;;;;;;5052083;28;20190;-76
2021/05/15 09:56:08;;;;;;;10.47;2.40;;;16.00;99.90;;;;;;5048301;28;20184;-77
2021/05/15 09:58:34;;;;;;;7.67;1.90;;;15.80;99.90;;;;;;5049983;28;20275;-77
2021/05/15 10:01:00;;;;;;;8.03;2.03;;;15.80;99.90;;;;;;5047069;28;20276;-77
2021/05/15 10:03:28;;;;;;;10.93;2.10;;;15.80;99.90;;;;;;5052282;28;20187;-77
2021/05/15 10:06:07;;;;;;;7.57;1.93;;;15.90;99.90;;;;;;5047400;28;20233;-77
2021/05/15 10:08:43;;;;;;;9.13;2.07;;;16.30;99.90;;;;;;5052495;28;20280;-77
2021/05/15 10:11:10;;;;;;;8.67;2.00;;;17.10;99.90;;;;;;5046408;28;20257;-77
2021/05/15 10:13:38;;;;;;;9.40;1.90;;;17.90;99.90;;;;;;5048756;28;20219;-77
2021/05/15 10:16:05;;;;;;;8.93;1.77;;;18.30;99.90;;;;;;5049754;28;20666;-77
2021/05/15 10:18:32;;;;;;;6.40;1.43;;;18.70;99.90;;;;;;5044697;28;20188;-76
2021/05/15 10:20:59;;;;;;;8.87;1.70;;;18.60;99.90;;;;;;5051409;28;20187;-76
2021/05/15 10:23:27;;;;;;;6.60;1.37;;;18.60;99.90;;;;;;5048602;28;20187;-77
2021/05/15 10:26:07;;;;;;;6.53;1.50;;;18.50;99.90;;;;;;5033684;28;20192;-77
2021/05/15 10:28:35;;;;;;;7.40;1.60;;;18.60;99.90;;;;;;5042033;28;20209;-76
2021/05/15 10:31:21;;;;;;;8.63;1.40;;;18.50;99.90;;;;;;5047802;28;20208;-76
2021/05/15 10:33:48;;;;;;;8.00;1.53;;;18.70;99.90;;;;;;5049877;28;20223;-76
2021/05/15 10:36:22;;;;;;;4.93;1.30;;;18.70;99.90;;;;;;5048894;28;20721;-76
2021/05/15 10:38:53;;;;;;;16.20;2.23;;;18.90;99.90;;;;;;5050641;28;20204;-76
2021/05/15 10:41:25;;;;;;;6.13;1.40;;;18.80;99.90;;;;;;5051927;28;20653;-76
2021/05/15 10:43:51;;;;;;;5.23;1.23;;;18.60;99.90;;;;;;5051460;28;20547;-77
2021/05/15 10:46:31;;;;;;;6.93;1.53;;;18.20;99.90;;;;;;5052613;28;20189;-77
2021/05/15 10:49:09;;;;;;;7.53;1.57;;;17.60;99.90;;;;;;5048861;28;20226;-77
2021/05/15 10:51:39;;;;;;;7.70;1.10;;;17.00;99.90;;;;;;5045417;28;20235;-77
2021/05/15 10:54:06;;;;;;;6.23;1.50;;;17.10;99.90;;;;;;5049647;28;20181;-77
2021/05/15 10:56:32;;;;;;;7.53;1.43;;;16.80;99.90;;;;;;5040080;28;20243;-78
2021/05/15 10:59:04;;;;;;;8.73;1.97;;;16.70;99.90;;;;;;5049303;28;20196;-77
2021/05/15 11:02:00;;;;;;;10.33;1.40;;;16.50;99.90;;;;;;5048390;28;20252;-76
2021/05/15 11:04:32;;;;;;;6.00;1.37;;;16.00;99.90;;;;;;5064013;28;20189;-76
2021/05/15 11:07:11;;;;;;;8.73;1.47;;;15.30;99.90;;;;;;5051079;28;20195;-75
2021/05/15 11:09:48;;;;;;;7.30;1.60;;;15.10;99.90;;;;;;5042136;28;20281;-76
2021/05/15 11:12:16;;;;;;;9.20;1.80;;;14.70;99.90;;;;;;5050625;28;20671;-77
2021/05/15 11:14:47;;;;;;;8.17;1.50;;;14.50;99.90;;;;;;5045817;28;20187;-77
2021/05/15 11:17:16;;;;;;;8.60;2.27;;;14.20;99.90;;;;;;5046884;28;20217;-78
2021/05/15 11:19:58;;;;;;;6.80;1.50;;;14.20;99.90;;;;;;5061908;28;20184;-76
2021/05/15 11:22:36;;;;;;;7.53;2.17;;;14.30;99.90;;;;;;5049200;28;20195;-76
2021/05/15 11:25:12;;;;;;;6.73;1.43;;;14.30;99.90;;;;;;5050905;28;20525;-76
2021/05/15 11:27:50;;;;;;;8.50;2.00;;;14.20;99.90;;;;;;5044034;28;20220;-77
2021/05/15 11:30:26;;;;;;;5.97;1.80;;;14.50;99.90;;;;;;5046668;28;20233;-76
2021/05/15 11:33:00;;;;;;;7.07;1.80;;;14.50;99.90;;;;;;5049883;28;20192;-76
2021/05/15 11:35:28;;;;;;;9.90;1.73;;;14.60;99.90;;;;;;5048544;28;20233;-77
2021/05/15 11:38:10;;;;;;;7.97;1.70;;;14.80;99.90;;;;;;5044906;28;20181;-77
2021/05/15 11:40:40;;;;;;;12.97;3.07;;;15.00;99.90;;;;;;5048427;28;20207;-77
2021/05/15 11:43:06;;;;;;;7.93;1.87;;;15.40;99.90;;;;;;5048426;28;20617;-77
2021/05/15 11:45:34;;;;;;;6.27;1.87;;;16.00;99.90;;;;;;5047212;28;20202;-77
2021/05/15 11:48:20;;;;;;;8.80;2.00;;;16.30;99.90;;;;;;5049439;28;20851;-76
2021/05/15 11:51:04;;;;;;;8.47;1.80;;;16.20;99.90;;;;;;5026814;28;20190;-76
2021/05/15 11:53:34;;;;;;;8.00;1.83;;;16.30;99.90;;;;;;5050640;28;20692;-76
2021/05/15 11:56:00;;;;;;;6.13;1.70;;;16.40;99.90;;;;;;5047121;28;20241;-77
2021/05/15 11:58:26;;;;;;;8.70;1.80;;;15.90;99.90;;;;;;5047626;28;20192;-77
2021/05/15 12:00:52;;;;;;;5.30;1.73;;;15.50;99.90;;;;;;5062302;28;20192;-76
2021/05/15 12:03:22;;;;;;;5.77;1.80;;;15.10;99.90;;;;;;5042991;28;20191;-77
2021/05/15 12:05:49;;;;;;;7.83;2.07;;;15.00;99.90;;;;;;5047804;28;20184;-76
2021/05/15 12:08:16;;;;;;;7.23;2.20;;;14.90;99.90;;;;;;5039976;28;20242;-77
2021/05/15 12:10:42;;;;;;;6.47;2.00;;;14.90;99.90;;;;;;5047475;28;21619;-76
2021/05/15 12:13:09;;;;;;;8.57;2.30;;;14.90;99.90;;;;;;5048388;28;20176;-78
2021/05/15 12:15:38;;;;;;;8.20;2.30;;;14.90;99.90;;;;;;5047977;28;20185;-77
2021/05/15 12:18:04;;;;;;;6.60;2.00;;;14.90;99.90;;;;;;5049823;28;20238;-77
2021/05/15 12:20:39;;;;;;;6.23;2.10;;;14.90;99.90;;;;;;5047667;28;20725;-77
2021/05/15 12:23:16;;;;;;;9.90;1.80;;;14.90;99.90;;;;;;5050070;28;20706;-78
2021/05/15 12:26:04;;;;;;;8.43;1.80;;;15.00;99.90;;;;;;5064259;28;20176;-78
2021/05/15 12:28:33;;;;;;;9.87;1.90;;;14.70;99.90;;;;;;5052286;28;20209;-78
2021/05/15 12:31:02;;;;;;;3.47;1.37;;;14.70;99.90;;;;;;5048390;28;20208;-77
2021/05/15 12:33:30;;;;;;;6.47;1.50;;;14.60;99.90;;;;;;5044254;28;20234;-75
2021/05/15 12:36:07;;;;;;;2.33;1.10;;;14.40;99.90;;;;;;5045784;28;20304;-76
2021/05/15 12:38:44;;;;;;;5.07;1.90;;;14.50;99.90;;;;;;5045035;28;20267;-76